createdAt,value
2019-04-30T00:01:55.817Z,97766.09
2019-04-30T00:04:34.512Z,97763.30
2019-04-30T00:07:05.520Z,97763.84
2019-04-30T00:09:39.158Z,97763.59
2019-04-30T00:12:11.825Z,97762.12
2019-04-30T00:14:44.888Z,97756.95
2019-04-30T00:17:19.681Z,97757.57
2019-04-30T00:19:58.243Z,97751.14
2019-04-30T00:22:33.170Z,97748.78
2019-04-30T00:24:58.515Z,97748.23
2019-04-30T00:27:30.877Z,97749.20
2019-04-30T00:30:07.298Z,97748.27
2019-04-30T00:32:39.063Z,97747.69
2019-04-30T00:35:17.381Z,97745.81
2019-04-30T00:37:51.689Z,97739.95
2019-04-30T00:40:21.720Z,97736.66
2019-04-30T00:42:53.137Z,97730.21
2019-04-30T00:45:25.286Z,97728.88
2019-04-30T00:47:57.273Z,97736.45
2019-04-30T00:50:33.930Z,97739.66
2019-04-30T00:53:05.890Z,97741.08
2019-04-30T00:55:38.115Z,97741.86
2019-04-30T00:58:10.667Z,97741.77
2019-04-30T01:00:51.573Z,97731.34
2019-04-30T01:03:26.905Z,97742.41
2019-04-30T01:05:58.859Z,97737.10
2019-04-30T01:08:31.230Z,97738.53
2019-04-30T01:11:06.530Z,97741.73
2019-04-30T01:13:38.942Z,97736.16
2019-04-30T01:16:10.965Z,97733.12
2019-04-30T01:18:42.961Z,97728.11
2019-04-30T01:21:14.953Z,97727.36
2019-04-30T01:23:51.788Z,97727.27
2019-04-30T01:26:22.864Z,97722.70
2019-04-30T01:29:00.573Z,97721.09
2019-04-30T01:31:31.725Z,97724.91
2019-04-30T01:34:05.055Z,97717.03
2019-04-30T01:36:36.308Z,97721.11
2019-04-30T01:39:09.479Z,97720.08
2019-04-30T01:41:41.585Z,97722.08
2019-04-30T01:44:13.570Z,97710.91
2019-04-30T01:46:48.216Z,97717.45
2019-04-30T01:49:20.383Z,97717.28
2019-04-30T01:51:57.080Z,97716.51
2019-04-30T01:54:26.597Z,97712.81
2019-04-30T01:57:29.696Z,97714.53
2019-04-30T02:00:05.573Z,97712.36
2019-04-30T02:02:39.561Z,97715.75
2019-04-30T02:05:11.471Z,97716.63
2019-04-30T02:07:45.928Z,97705.91
2019-04-30T02:10:18.622Z,97710.34
2019-04-30T02:12:51.208Z,97711.99
2019-04-30T02:15:23.196Z,97713.61
2019-04-30T02:17:55.152Z,97709.42
2019-04-30T02:20:28.690Z,97709.34
2019-04-30T02:23:01.009Z,97706.08
2019-04-30T02:25:32.970Z,97705.14
2019-04-30T02:28:04.939Z,97706.47
2019-04-30T02:30:40.206Z,97707.05
2019-04-30T02:33:10.703Z,97702.09
2019-04-30T02:36:03.707Z,97708.38
2019-04-30T02:38:36.022Z,97707.87
2019-04-30T02:41:09.977Z,97703.05
2019-04-30T02:43:43.601Z,97699.45
2019-04-30T02:46:19.066Z,97707.87
2019-04-30T02:48:52.417Z,97700.19
2019-04-30T02:51:29.910Z,97708.74
2019-04-30T02:54:14.089Z,97710.62
2019-04-30T02:56:50.715Z,97703.59
2019-04-30T02:59:23.046Z,97705.50
2019-04-30T03:01:55.038Z,97709.31
2019-04-30T03:04:29.246Z,97708.80
2019-04-30T03:07:01.006Z,97707.77
2019-04-30T03:09:33.744Z,97706.17
2019-04-30T03:12:05.761Z,97709.58
2019-04-30T03:14:39.946Z,97703.98
2019-04-30T03:17:21.132Z,97707.03
2019-04-30T03:20:00.213Z,97712.89
2019-04-30T03:22:32.030Z,97716.02
2019-04-30T03:25:04.009Z,97714.04
2019-04-30T03:27:36.043Z,97708.08
2019-04-30T03:30:11.905Z,97715.39
2019-04-30T03:32:43.286Z,97719.57
2019-04-30T03:35:15.678Z,97717.08
2019-04-30T03:37:49.640Z,97716.80
2019-04-30T03:40:21.373Z,97711.89
2019-04-30T03:42:53.412Z,97718.23
2019-04-30T03:45:25.337Z,97711.77
2019-04-30T03:47:59.609Z,97716.72
2019-04-30T03:50:48.185Z,97716.94
2019-04-30T03:53:04.966Z,97717.96
2019-04-30T03:55:36.973Z,97717.12
2019-04-30T03:58:09.316Z,97718.61
2019-04-30T04:01:03.288Z,97721.86
2019-04-30T04:03:42.044Z,97715.67
2019-04-30T04:06:29.136Z,97714.56
2019-04-30T04:09:06.903Z,97716.20
2019-04-30T04:11:41.788Z,97719.88
2019-04-30T04:14:13.832Z,97724.53
2019-04-30T04:16:45.811Z,97728.52
2019-04-30T04:19:19.694Z,97730.05
2019-04-30T04:21:51.518Z,97730.07
2019-04-30T04:24:23.492Z,97727.03
2019-04-30T04:26:55.474Z,97726.27
2019-04-30T04:29:29.821Z,97726.56
2019-04-30T04:32:01.269Z,97726.63
2019-04-30T04:34:33.310Z,97729.30
2019-04-30T04:37:06.310Z,97729.30
2019-04-30T04:39:38.882Z,97730.63
2019-04-30T04:42:12.042Z,97733.49
2019-04-30T04:44:44.037Z,97734.23
2019-04-30T04:47:16.390Z,97736.46
2019-04-30T04:49:52.960Z,97729.16
2019-04-30T04:52:22.985Z,97734.92
2019-04-30T04:54:55.072Z,97729.89
2019-04-30T04:57:27.113Z,97733.70
2019-04-30T05:00:06.573Z,97730.16
2019-04-30T05:02:59.361Z,97734.75
2019-04-30T05:05:31.503Z,97745.66
2019-04-30T05:08:03.571Z,97749.65
2019-04-30T05:10:35.647Z,97750.10
2019-04-30T05:13:09.219Z,97750.38
2019-04-30T05:15:41.339Z,97751.33
2019-04-30T05:18:13.457Z,97751.16
2019-04-30T05:20:45.657Z,97748.32
2019-04-30T05:23:21.546Z,97750.77
2019-04-30T05:25:51.325Z,97740.62
2019-04-30T05:28:23.378Z,97749.72
2019-04-30T05:30:55.385Z,97753.98
2019-04-30T05:33:28.582Z,97746.67
2019-04-30T05:36:01.187Z,97753.81
2019-04-30T05:38:33.196Z,97752.35
2019-04-30T05:41:05.171Z,97749.03
2019-04-30T05:43:38.705Z,97755.13
2019-04-30T05:46:14.035Z,97752.47
2019-04-30T05:48:45.281Z,97758.80
2019-04-30T05:51:19.285Z,97751.11
2019-04-30T05:53:51.270Z,97746.13
2019-04-30T05:56:23.398Z,97756.59
2019-04-30T05:58:55.433Z,97754.67
2019-04-30T06:01:29.365Z,97753.26
2019-04-30T06:04:01.155Z,97748.15
2019-04-30T06:06:33.694Z,97752.69
2019-04-30T06:09:16.088Z,97758.05
2019-04-30T06:11:59.143Z,97762.09
2019-04-30T06:14:48.940Z,97763.23
2019-04-30T06:17:19.731Z,97759.95
2019-04-30T06:19:52.096Z,97774.25
2019-04-30T06:22:24.543Z,97768.47
2019-04-30T06:24:56.494Z,97769.74
2019-04-30T06:27:29.225Z,97772.59
2019-04-30T06:30:01.382Z,97778.50
2019-04-30T06:32:33.630Z,97779.44
2019-04-30T06:35:05.915Z,97779.93
2019-04-30T06:37:39.045Z,97779.62
2019-04-30T06:40:12.337Z,97772.63
2019-04-30T06:42:44.381Z,97768.14
2019-04-30T06:45:18.984Z,97764.59
2019-04-30T06:47:51.508Z,97759.00
2019-04-30T06:50:23.635Z,97767.70
2019-04-30T06:52:58.794Z,97770.48
2019-04-30T06:55:30.904Z,97773.73
2019-04-30T06:58:11.934Z,97769.64
2019-04-30T07:00:40.663Z,97777.03
2019-04-30T07:03:12.711Z,97777.22
2019-04-30T07:05:44.648Z,97779.78
2019-04-30T07:08:54.814Z,97771.69
2019-04-30T07:11:30.986Z,97777.69
2019-04-30T07:14:03.011Z,97780.91
2019-04-30T07:16:35.012Z,97776.39
2019-04-30T07:19:06.978Z,97783.91
2019-04-30T07:21:42.784Z,97776.31
2019-04-30T07:24:12.813Z,97769.50
2019-04-30T07:26:44.952Z,97779.94
2019-04-30T07:29:17.110Z,97776.44
2019-04-30T07:31:51.579Z,97777.41
2019-04-30T07:34:23.870Z,97773.06
2019-04-30T07:37:10.711Z,97780.45
2019-04-30T07:39:33.315Z,97771.85
2019-04-30T07:42:03.706Z,97766.44
2019-04-30T07:44:36.720Z,97774.58
2019-04-30T07:47:09.674Z,97759.44
2019-04-30T07:49:51.563Z,97757.75
2019-04-30T07:52:16.343Z,97757.81
2019-04-30T07:54:51.580Z,97751.20
2019-04-30T07:57:22.776Z,97751.27
2019-04-30T07:59:54.877Z,97729.64
2019-04-30T08:02:29.749Z,97721.70
2019-04-30T08:05:11.171Z,97731.22
2019-04-30T08:07:43.252Z,97730.77
2019-04-30T08:10:15.499Z,97730.29
2019-04-30T08:12:50.423Z,97727.87
2019-04-30T08:15:22.072Z,97732.45
2019-04-30T08:18:02.626Z,97741.83
2019-04-30T08:20:29.543Z,97740.32
2019-04-30T08:23:13.391Z,97738.47
2019-04-30T08:25:35.394Z,97735.72
2019-04-30T08:28:09.099Z,97740.77
2019-04-30T08:30:41.305Z,97737.77
2019-04-30T08:33:13.307Z,97736.14
2019-04-30T08:35:45.440Z,97751.45
2019-04-30T08:38:19.115Z,97754.91
2019-04-30T08:40:55.991Z,97758.67
2019-04-30T08:43:25.335Z,97750.77
2019-04-30T08:45:59.374Z,97743.69
2019-04-30T08:48:44.260Z,97743.88
2019-04-30T08:51:05.118Z,97750.05
2019-04-30T08:53:38.511Z,97757.95
2019-04-30T08:56:10.966Z,97751.75
2019-04-30T08:58:42.988Z,97754.34
2019-04-30T09:01:15.009Z,97758.45
2019-04-30T09:03:47.086Z,97750.00
2019-04-30T09:06:29.129Z,97761.45
2019-04-30T09:09:06.552Z,97766.23
2019-04-30T09:11:51.855Z,97771.30
2019-04-30T09:14:12.305Z,97758.97
2019-04-30T09:16:44.503Z,97757.22
2019-04-30T09:19:16.761Z,97774.91
2019-04-30T09:21:48.969Z,97772.94
2019-04-30T09:24:21.309Z,97779.20
2019-04-30T09:26:53.371Z,97775.89
2019-04-30T09:29:25.457Z,97781.91
2019-04-30T09:31:59.420Z,97751.42
2019-04-30T09:34:31.389Z,97751.42
2019-04-30T09:37:03.479Z,97751.73
2019-04-30T09:39:35.739Z,97747.88
2019-04-30T09:42:09.271Z,97754.60
2019-04-30T09:44:41.508Z,97743.37
2019-04-30T09:47:13.632Z,97753.50
2019-04-30T09:49:45.670Z,97754.58
2019-04-30T09:52:19.247Z,97755.52
2019-04-30T09:54:51.702Z,97753.80
2019-04-30T09:57:24.263Z,97742.84
2019-04-30T09:59:56.262Z,97745.25
2019-04-30T10:02:29.064Z,97747.25
2019-04-30T10:05:01.852Z,97744.19
2019-04-30T10:07:34.454Z,97734.64
2019-04-30T10:10:09.399Z,97736.52
2019-04-30T10:12:41.038Z,97736.20
2019-04-30T10:15:18.830Z,97745.13
2019-04-30T10:17:50.674Z,97739.42
2019-04-30T10:20:30.463Z,97734.97
2019-04-30T10:23:02.467Z,97738.11
2019-04-30T10:25:34.482Z,97718.92
2019-04-30T10:28:06.876Z,97717.13
2019-04-30T10:30:39.537Z,97713.73
2019-04-30T10:33:11.525Z,97709.63
2019-04-30T10:35:43.525Z,97714.94
2019-04-30T10:38:15.540Z,97719.58
2019-04-30T10:40:48.790Z,97720.16
2019-04-30T10:43:20.913Z,97709.84
2019-04-30T10:45:53.070Z,97702.88
2019-04-30T10:48:25.490Z,97695.89
2019-04-30T10:50:58.851Z,97690.11
2019-04-30T10:53:31.616Z,97692.73
2019-04-30T10:56:03.661Z,97698.92
2019-04-30T10:58:35.793Z,97687.41
2019-04-30T11:01:09.611Z,97680.98
2019-04-30T11:03:42.964Z,97693.73
2019-04-30T11:06:16.315Z,97684.24
2019-04-30T11:08:50.730Z,97694.48
2019-04-30T11:11:22.879Z,97679.25
2019-04-30T11:13:54.884Z,97681.63
2019-04-30T11:16:27.235Z,97673.12
2019-04-30T11:18:59.380Z,97675.75
2019-04-30T11:21:32.328Z,97681.72
2019-04-30T11:24:05.041Z,97692.32
2019-04-30T11:26:39.722Z,97691.84
2019-04-30T11:29:11.298Z,97685.13
2019-04-30T11:31:49.731Z,97690.68
2019-04-30T11:34:22.215Z,97658.05
2019-04-30T11:36:56.869Z,97697.17
2019-04-30T11:39:29.784Z,97681.14
2019-04-30T11:42:01.933Z,97705.91
2019-04-30T11:44:33.995Z,97698.23
2019-04-30T11:47:52.638Z,97718.27
2019-04-30T11:50:16.160Z,97704.50
2019-04-30T11:52:48.235Z,97702.08
2019-04-30T11:55:20.325Z,97706.83
2019-04-30T11:57:52.451Z,97708.21
2019-04-30T12:00:32.188Z,97708.77
2019-04-30T12:03:09.039Z,97702.72
2019-04-30T12:05:41.634Z,97710.95
2019-04-30T12:08:22.681Z,97707.52
2019-04-30T12:11:24.715Z,97709.17
2019-04-30T12:13:58.535Z,97704.89
2019-04-30T12:16:33.604Z,97704.34
2019-04-30T12:19:08.907Z,97709.33
2019-04-30T12:21:43.265Z,97702.00
2019-04-30T12:24:15.341Z,97700.80
2019-04-30T12:26:51.092Z,97701.06
2019-04-30T12:29:26.339Z,97702.83
2019-04-30T12:31:58.404Z,97705.07
2019-04-30T12:34:33.682Z,97706.62
2019-04-30T12:37:05.754Z,97702.85
2019-04-30T12:39:39.454Z,97705.77
2019-04-30T12:42:12.878Z,97700.65
2019-04-30T12:44:45.308Z,97680.19
2019-04-30T12:47:21.474Z,97694.02
2019-04-30T12:50:13.665Z,97701.67
2019-04-30T12:52:50.392Z,97706.95
2019-04-30T12:55:48.933Z,97698.98
2019-04-30T12:58:23.073Z,97704.70
2019-04-30T13:00:59.133Z,97706.74
2019-04-30T13:03:32.929Z,97704.03
2019-04-30T13:06:05.765Z,97691.00
2019-04-30T13:08:39.592Z,97681.84
2019-04-30T13:11:13.086Z,97690.61
2019-04-30T13:13:50.492Z,97695.18
2019-04-30T13:16:25.306Z,97701.10
2019-04-30T13:18:59.395Z,97698.37
2019-04-30T13:21:31.653Z,97693.22
2019-04-30T13:24:03.704Z,97693.20
2019-04-30T13:26:35.801Z,97687.25
2019-04-30T13:29:16.966Z,97690.87
2019-04-30T13:31:50.338Z,97685.27
2019-04-30T13:34:50.202Z,97682.60
2019-04-30T13:37:22.253Z,97693.17
2019-04-30T13:40:20.113Z,97687.63
2019-04-30T13:42:52.226Z,97686.93
2019-04-30T13:45:25.417Z,97677.85
2019-04-30T13:47:58.889Z,97683.85
2019-04-30T13:50:32.319Z,97678.49
2019-04-30T13:53:04.345Z,97676.86
2019-04-30T13:55:43.635Z,97670.58
2019-04-30T13:58:10.318Z,97671.80
2019-04-30T14:00:42.296Z,97680.39
2019-04-30T14:03:22.425Z,97679.38
2019-04-30T14:05:54.572Z,97674.84
2019-04-30T14:08:38.833Z,97671.53
2019-04-30T14:11:11.134Z,97677.19
2019-04-30T14:13:43.179Z,97676.98
2019-04-30T14:16:15.905Z,97685.71
2019-04-30T14:18:48.798Z,97684.99
2019-04-30T14:21:32.250Z,97685.34
2019-04-30T14:23:54.892Z,97689.64
2019-04-30T14:26:26.933Z,97684.71
2019-04-30T14:28:58.945Z,97679.61
2019-04-30T14:31:30.996Z,97678.38
2019-04-30T14:34:02.956Z,97677.75
2019-04-30T14:36:34.928Z,97677.00
2019-04-30T14:39:14.650Z,97676.71
2019-04-30T14:41:44.189Z,97677.55
2019-04-30T14:44:21.400Z,97670.06
2019-04-30T14:47:12.368Z,97664.73
2019-04-30T14:50:05.428Z,97669.02
2019-04-30T14:52:44.751Z,97666.39
2019-04-30T14:55:34.243Z,97667.04
2019-04-30T14:58:29.333Z,97645.23
2019-04-30T15:01:09.986Z,97657.27
2019-04-30T15:03:42.062Z,97656.50
2019-04-30T15:06:14.019Z,97653.28
2019-04-30T15:08:46.013Z,97655.25
2019-04-30T15:11:19.045Z,97662.27
2019-04-30T15:13:51.328Z,97654.69
2019-04-30T15:16:23.433Z,97659.58
2019-04-30T15:18:55.488Z,97659.94
2019-04-30T15:21:27.673Z,97666.98
2019-04-30T15:24:23.211Z,97669.88
2019-04-30T15:26:58.761Z,97658.67
2019-04-30T15:29:29.599Z,97671.66
2019-04-30T15:32:01.631Z,97672.61
2019-04-30T15:34:33.656Z,97669.03
2019-04-30T15:37:18.510Z,97671.02
2019-04-30T15:39:41.040Z,97674.15
2019-04-30T15:42:13.952Z,97674.95
2019-04-30T15:44:46.175Z,97660.25
2019-04-30T15:47:20.561Z,97670.41
2019-04-30T15:49:52.574Z,97669.13
2019-04-30T15:52:24.610Z,97670.13
2019-04-30T15:54:56.646Z,97667.66
2019-04-30T15:57:29.520Z,97673.39
2019-04-30T16:00:01.810Z,97676.08
2019-04-30T16:02:53.475Z,97676.08
2019-04-30T16:05:41.272Z,97677.48
2019-04-30T16:08:29.041Z,97670.81
2019-04-30T16:11:27.053Z,97662.48
2019-04-30T16:14:18.658Z,97663.57
2019-04-30T16:17:13.850Z,97662.50
2019-04-30T16:19:45.949Z,97658.20
2019-04-30T16:22:19.231Z,97655.47
2019-04-30T16:24:54.571Z,97655.98
2019-04-30T16:27:25.587Z,97672.98
2019-04-30T16:29:59.404Z,97671.10
2019-04-30T16:32:31.301Z,97665.81
2019-04-30T16:35:03.382Z,97669.78
2019-04-30T16:37:35.475Z,97665.33
2019-04-30T16:40:08.585Z,97663.47
2019-04-30T16:42:41.385Z,97657.91
2019-04-30T16:45:13.435Z,97667.14
2019-04-30T16:47:45.412Z,97665.56
2019-04-30T16:50:18.797Z,97673.72
2019-04-30T16:52:50.909Z,97669.34
2019-04-30T16:55:22.928Z,97675.28
2019-04-30T16:57:54.923Z,97666.73
2019-04-30T17:00:29.063Z,97664.98
2019-04-30T17:03:05.511Z,97669.77
2019-04-30T17:05:45.484Z,97661.83
2019-04-30T17:08:39.403Z,97663.27
2019-04-30T17:11:16.768Z,97668.73
2019-04-30T17:13:52.739Z,97668.17
2019-04-30T17:16:25.026Z,97673.67
2019-04-30T17:18:59.008Z,97668.81
2019-04-30T17:21:30.827Z,97675.64
2019-04-30T17:24:02.905Z,97677.88
2019-04-30T17:26:34.880Z,97669.92
2019-04-30T17:29:07.035Z,97673.42
2019-04-30T17:31:39.006Z,97680.20
2019-04-30T17:34:11.485Z,97682.47
2019-04-30T17:36:43.441Z,97721.45
2019-04-30T17:39:18.105Z,97738.63
2019-04-30T17:41:50.713Z,97747.33
2019-04-30T17:44:22.674Z,97746.71
2019-04-30T17:46:54.685Z,97762.56
2019-04-30T17:49:29.878Z,97751.33
2019-04-30T17:52:04.275Z,97757.52
2019-04-30T17:54:36.283Z,97764.64
2019-04-30T17:57:10.671Z,97770.58
2019-04-30T17:59:42.904Z,97784.41
2019-04-30T18:02:16.708Z,97770.53
2019-04-30T18:04:48.772Z,97780.71
2019-04-30T18:07:21.179Z,97776.66
2019-04-30T18:09:54.423Z,97789.61
2019-04-30T18:12:26.609Z,97784.97
2019-04-30T18:15:00.025Z,97781.00
2019-04-30T18:17:32.145Z,97786.42
2019-04-30T18:20:21.283Z,97793.08
2019-04-30T18:23:14.318Z,97798.39
2019-04-30T18:25:53.557Z,97800.95
2019-04-30T18:28:25.981Z,97805.05
2019-04-30T18:30:59.031Z,97794.52
2019-04-30T18:33:31.293Z,97804.11
2019-04-30T18:36:03.297Z,97810.20
2019-04-30T18:38:35.380Z,97804.88
2019-04-30T18:41:09.339Z,97807.16
2019-04-30T18:43:41.346Z,97815.91
2019-04-30T18:46:13.446Z,97811.44
2019-04-30T18:48:45.497Z,97814.02
2019-04-30T18:51:32.931Z,97813.35
2019-04-30T18:53:51.330Z,97809.75
2019-04-30T18:56:23.348Z,97809.47
2019-04-30T18:58:55.360Z,97811.74
2019-04-30T19:01:27.435Z,97806.42
2019-04-30T19:04:01.166Z,97797.40
2019-04-30T19:06:33.302Z,97796.52
2019-04-30T19:09:29.513Z,97798.63
2019-04-30T19:12:11.775Z,97789.20
2019-04-30T19:15:11.554Z,97794.31
2019-04-30T19:18:08.184Z,97796.88
2019-04-30T19:20:46.572Z,97804.42
2019-04-30T19:23:19.103Z,97798.03
2019-04-30T19:25:51.234Z,97800.56
2019-04-30T19:28:23.264Z,97793.70
2019-04-30T19:30:58.305Z,97796.62
2019-04-30T19:33:31.070Z,97793.25
2019-04-30T19:36:03.047Z,97795.88
2019-04-30T19:38:35.053Z,97799.11
2019-04-30T19:41:09.065Z,97796.07
2019-04-30T19:43:41.284Z,97804.22
2019-04-30T19:46:13.226Z,97811.07
2019-04-30T19:48:45.385Z,97815.14
2019-04-30T19:51:19.592Z,97816.81
2019-04-30T19:53:51.512Z,97813.00
2019-04-30T19:56:23.776Z,97812.24
2019-04-30T19:59:02.903Z,97808.66
2019-04-30T20:01:30.269Z,97818.98
2019-04-30T20:04:02.659Z,97813.78
2019-04-30T20:06:34.696Z,97805.05
2019-04-30T20:09:08.947Z,97800.22
2019-04-30T20:11:42.544Z,97808.11
2019-04-30T20:14:14.810Z,97799.88
2019-04-30T20:16:48.379Z,97804.88
2019-04-30T20:19:20.732Z,97800.34
2019-04-30T20:21:53.940Z,97800.41
2019-04-30T20:24:26.236Z,97794.34
2019-04-30T20:27:07.058Z,97791.08
2019-04-30T20:29:32.337Z,97799.29
2019-04-30T20:32:04.396Z,97797.68
2019-04-30T20:34:36.596Z,97791.59
2019-04-30T20:37:08.735Z,97792.70
2019-04-30T20:39:52.606Z,97798.77
2019-04-30T20:42:24.713Z,97791.39
2019-04-30T20:44:58.782Z,97788.91
2019-04-30T20:47:30.487Z,97789.97
2019-04-30T20:50:02.557Z,97789.13
2019-04-30T20:52:34.639Z,97785.26
2019-04-30T20:55:06.808Z,97780.78
2019-04-30T20:57:39.483Z,97787.98
2019-04-30T21:00:11.839Z,97787.81
2019-04-30T21:02:43.822Z,97787.05
2019-04-30T21:05:15.857Z,97786.83
2019-04-30T21:07:48.072Z,97787.60
2019-04-30T21:10:21.660Z,97787.33
2019-04-30T21:12:53.674Z,97781.44
2019-04-30T21:15:25.722Z,97787.42
2019-04-30T21:18:00.485Z,97794.08
2019-04-30T21:20:38.831Z,97791.42
2019-04-30T21:23:10.750Z,97790.16
2019-04-30T21:25:44.514Z,97781.91
2019-04-30T21:28:19.755Z,97781.45
2019-04-30T21:30:52.442Z,97771.38
2019-04-30T21:33:38.458Z,97769.94
2019-04-30T21:36:18.894Z,97763.11
2019-04-30T21:38:52.479Z,97772.98
2019-04-30T21:41:25.375Z,97774.63
2019-04-30T21:43:57.457Z,97777.36
2019-04-30T21:46:29.574Z,97780.61
2019-04-30T21:49:02.439Z,97777.28
2019-04-30T21:51:34.556Z,97776.80
2019-04-30T21:54:08.215Z,97762.94
2019-04-30T21:56:40.306Z,97760.08
2019-04-30T21:59:23.741Z,97762.94
2019-04-30T22:01:47.815Z,97761.41
2019-04-30T22:04:21.181Z,97760.67
2019-04-30T22:06:53.327Z,97756.95
2019-04-30T22:09:25.337Z,97757.23
2019-04-30T22:11:59.131Z,97759.76
2019-04-30T22:14:31.253Z,97756.26
2019-04-30T22:17:03.399Z,97752.48
2019-04-30T22:19:35.391Z,97751.50
2019-04-30T22:22:09.260Z,97754.16
2019-04-30T22:24:41.314Z,97747.52
2019-04-30T22:27:13.343Z,97752.48
2019-04-30T22:29:45.864Z,97746.95
2019-04-30T22:32:17.978Z,97752.09
2019-04-30T22:34:51.154Z,97746.39
2019-04-30T22:37:23.619Z,97746.39
2019-04-30T22:40:01.128Z,97747.23
2019-04-30T22:42:34.738Z,97742.97
2019-04-30T22:45:13.680Z,97735.94
2019-04-30T22:47:50.195Z,97735.27
2019-04-30T22:50:23.501Z,97734.89
2019-04-30T22:52:55.563Z,97730.44
2019-04-30T22:55:30.759Z,97732.05
2019-04-30T22:58:03.039Z,97733.20
2019-04-30T23:00:39.069Z,97726.45
2019-04-30T23:03:14.342Z,97727.87
2019-04-30T23:05:46.490Z,97726.91
2019-04-30T23:08:18.846Z,97729.27
2019-04-30T23:10:51.159Z,97726.70
2019-04-30T23:13:23.331Z,97722.97
2019-04-30T23:15:56.456Z,97722.10
2019-04-30T23:18:28.450Z,97716.13
2019-04-30T23:21:00.773Z,97716.13
2019-04-30T23:23:32.857Z,97714.50
2019-04-30T23:26:05.780Z,97712.11
2019-04-30T23:28:38.058Z,97708.88
2019-04-30T23:31:10.286Z,97711.12
2019-04-30T23:33:42.295Z,97713.19
2019-04-30T23:36:14.274Z,97708.83
2019-04-30T23:38:46.322Z,97704.52
2019-04-30T23:41:18.352Z,97699.64
2019-04-30T23:43:50.737Z,97698.24
2019-04-30T23:46:22.710Z,97704.86
2019-04-30T23:48:54.842Z,97703.31
2019-04-30T23:51:26.855Z,97705.76
2019-04-30T23:53:58.830Z,97703.36
2019-04-30T23:56:30.842Z,97707.77
2019-04-30T23:59:02.814Z,97709.44
